Time;durP1;ratioP1;P1;durP2;ratioP2;P2;SDS_P1;SDS_P2;PMS_P1;PMS_P2;Temp;Humidity;BMP_temperature;BMP_pressure;BME280_temperature;BME280_humidity;BME280_pressure;Samples;Min_cycle;Max_cycle;Signal;HPM_P1;HPM_P2
2021/08/11 05:35:33;;;;;;;22.73;7.85;;;;;;;17.11;80.91;99054.13;2242227;79;21539;-65
2021/08/11 05:38:35;;;;;;;24.07;7.92;;;;;;;17.33;80.97;99050.52;2243902;79;21082;-65
2021/08/11 05:41:36;;;;;;;23.10;9.10;;;;;;;17.81;80.97;99048.57;2243903;78;21079;-64
2021/08/11 05:44:38;;;;;;;20.57;8.45;;;;;;;18.29;80.48;99049.69;2245332;78;21121;-64
2021/08/11 05:47:40;;;;;;;23.02;9.25;;;;;;;18.77;79.16;99057.82;2244339;77;21648;-64
2021/08/11 05:50:41;;;;;;;22.95;9.00;;;;;;;18.99;78.22;99062.02;2241933;78;21551;-64
2021/08/11 05:53:43;;;;;;;21.68;8.30;;;;;;;19.30;78.11;99057.86;2243967;78;20995;-64
2021/08/11 05:56:45;;;;;;;23.57;7.60;;;;;;;19.44;76.86;99060.05;2240262;79;21027;-64
2021/08/11 05:59:47;;;;;;;19.37;6.47;;;;;;;19.60;77.28;99058.61;2245907;78;20965;-64
2021/08/11 06:02:49;;;;;;;16.60;5.92;;;;;;;19.75;76.29;99062.45;2243216;78;21630;-64
2021/08/11 06:05:51;;;;;;;17.35;6.45;;;;;;;19.85;73.93;99059.78;2240915;79;21003;-64
2021/08/11 06:08:54;;;;;;;20.30;6.33;;;;;;;19.83;74.36;99060.43;2243542;79;21033;-63
2021/08/11 06:11:56;;;;;;;20.97;6.42;;;;;;;19.86;73.97;99056.97;2244273;78;21026;-64
2021/08/11 06:14:58;;;;;;;18.10;6.12;;;;;;;20.02;74.99;99064.81;2242360;78;21060;-64
2021/08/11 06:17:59;;;;;;;19.27;6.22;;;;;;;20.14;73.51;99066.77;2242042;78;20988;-64
2021/08/11 06:21:01;;;;;;;;;;;;;;;20.31;73.83;99059.80;2202788;80;21538;-63
2021/08/11 06:24:03;;;;;;;18.20;5.53;;;;;;;20.50;72.49;99062.34;2209601;79;20096;-64
2021/08/11 06:27:05;;;;;;;18.98;5.80;;;;;;;20.56;72.92;99071.56;2218191;78;21909;-64
2021/08/11 06:30:09;;;;;;;17.92;5.60;;;;;;;20.62;70.90;99068.28;2242595;78;21025;-64
2021/08/11 06:33:13;;;;;;;19.15;5.50;;;;;;;20.70;71.65;99074.20;2201621;80;21030;-64
2021/08/11 06:36:16;;;;;;;18.32;5.58;;;;;;;20.84;71.23;99065.66;2210207;80;21558;-64
2021/08/11 06:39:18;;;;;;;17.23;4.83;;;;;;;20.87;70.84;99068.52;2205964;80;21032;-65
2021/08/11 06:42:20;;;;;;;18.55;5.00;;;;;;;20.86;69.42;99074.36;2203487;80;20999;-64
2021/08/11 06:48:34;;;;;;;17.95;5.50;;;;;;;20.82;69.92;99068.98;2227647;78;21040;-68
2021/08/11 06:51:35;;;;;;;16.50;4.87;;;;;;;20.82;69.73;99064.16;2263251;78;21496;-62
2021/08/11 06:54:37;;;;;;;15.10;4.83;;;;;;;20.91;69.16;99060.05;2245844;78;21015;-68
2021/08/11 06:57:40;;;;;;;15.85;4.75;;;;;;;20.97;69.31;99065.78;2263681;78;21497;-67
2021/08/11 07:00:42;;;;;;;18.80;4.70;;;;;;;20.94;67.92;99065.08;2253134;78;21769;-68
2021/08/11 07:03:43;;;;;;;16.23;4.42;;;;;;;20.73;66.75;99065.42;2245528;78;20979;-68
2021/08/11 07:06:45;;;;;;;14.78;4.55;;;;;;;20.63;70.17;99072.63;2258385;78;20979;-68
2021/08/11 07:09:46;;;;;;;16.25;4.50;;;;;;;20.71;68.62;99070.05;2229984;78;21011;-63
2021/08/11 07:12:49;;;;;;;16.50;4.67;;;;;;;20.81;68.25;99068.64;2254776;78;20984;-68
2021/08/11 07:15:50;;;;;;;16.07;4.67;;;;;;;20.92;69.37;99076.41;2262043;78;21089;-68
2021/08/11 07:18:52;;;;;;;16.48;4.85;;;;;;;21.14;68.14;99069.41;2240968;78;20964;-68
2021/08/11 07:21:53;;;;;;;13.90;4.30;;;;;;;21.35;67.93;99075.22;2266334;78;21576;-68
2021/08/11 07:24:55;;;;;;;17.82;4.90;;;;;;;21.35;66.29;99078.37;2259591;78;20945;-67
2021/08/11 07:27:56;;;;;;;15.13;3.98;;;;;;;21.24;66.02;99077.64;2251897;78;21450;-67
2021/08/11 07:30:58;;;;;;;16.52;4.55;;;;;;;21.19;66.52;99077.77;2256359;78;20985;-68
2021/08/11 07:33:59;;;;;;;12.00;4.17;;;;;;;21.48;67.05;99068.61;2261423;78;21002;-67
2021/08/11 07:37:01;;;;;;;12.95;4.22;;;;;;;21.77;66.90;99071.81;2258006;78;20985;-68
2021/08/11 07:40:02;;;;;;;16.48;4.05;;;;;;;21.80;65.49;99075.48;2256476;78;20960;-67
2021/08/11 07:43:06;;;;;;;12.25;3.85;;;;;;;21.78;65.98;99074.00;2270145;78;21087;-68
2021/08/11 07:46:07;;;;;;;14.05;4.03;;;;;;;21.87;61.45;99071.69;2251395;78;21537;-69
2021/08/11 07:49:08;;;;;;;14.23;4.10;;;;;;;21.93;65.15;99084.91;2222067;78;20978;-67
2021/08/11 07:52:10;;;;;;;16.80;3.92;;;;;;;22.12;63.97;99075.78;2249065;78;21636;-68
2021/08/11 07:55:11;;;;;;;13.25;3.95;;;;;;;22.25;62.29;99075.33;2253132;78;20983;-67
2021/08/11 07:58:13;;;;;;;14.60;3.85;;;;;;;22.36;60.06;99083.58;2250226;78;21039;-68
2021/08/11 08:01:14;;;;;;;11.73;3.90;;;;;;;22.41;60.16;99087.92;2260810;78;21034;-68
2021/08/11 08:04:16;;;;;;;13.40;3.80;;;;;;;22.22;62.85;99079.16;2256580;78;21031;-68
2021/08/11 08:07:17;;;;;;;13.58;3.83;;;;;;;22.28;63.23;99081.20;2262138;78;21491;-68
2021/08/11 08:10:19;;;;;;;14.05;4.00;;;;;;;22.41;60.43;99081.23;2260550;78;21003;-68
2021/08/11 08:13:21;;;;;;;14.60;3.83;;;;;;;22.59;60.60;99085.13;2266631;78;21556;-65
2021/08/11 08:16:22;;;;;;;14.60;3.70;;;;;;;22.45;60.71;99081.25;2262468;78;20984;-66
2021/08/11 08:19:24;;;;;;;16.42;4.08;;;;;;;22.75;61.39;99085.14;2259851;78;21462;-68
2021/08/11 08:22:25;;;;;;;13.68;3.70;;;;;;;22.80;60.28;99084.16;2264326;78;20998;-67
2021/08/11 08:25:27;;;;;;;13.40;4.00;;;;;;;22.90;61.03;99085.81;2261722;78;21020;-68
2021/08/11 08:28:28;;;;;;;15.65;4.15;;;;;;;22.97;58.40;99092.16;2254478;78;20999;-63
2021/08/11 08:31:30;;;;;;;15.40;3.65;;;;;;;22.95;59.75;99090.17;2249601;78;21040;-68
2021/08/11 08:34:31;;;;;;;18.17;4.33;;;;;;;23.27;59.61;99087.17;2258977;78;21493;-67
2021/08/11 08:37:33;;;;;;;15.45;4.10;;;;;;;23.44;58.59;99094.17;2259321;78;20979;-63
2021/08/11 08:40:34;;;;;;;15.50;3.95;;;;;;;23.20;58.53;99090.19;2256532;78;21556;-65
2021/08/11 08:43:35;;;;;;;15.35;4.00;;;;;;;23.09;58.87;99094.85;2262085;78;21023;-68
2021/08/11 08:46:37;;;;;;;16.00;4.37;;;;;;;22.87;57.78;99098.19;2264584;78;21009;-68
2021/08/11 08:49:38;;;;;;;16.23;3.92;;;;;;;23.04;57.77;99099.86;2261414;78;20999;-65
2021/08/11 08:52:40;;;;;;;13.83;3.75;;;;;;;23.00;58.66;99099.85;2255013;78;20988;-69
2021/08/11 08:55:41;;;;;;;13.18;4.22;;;;;;;22.79;56.42;99095.02;2262438;78;22091;-67
2021/08/11 08:58:43;;;;;;;13.20;3.98;;;;;;;22.95;57.95;99091.51;2266609;78;21003;-62
2021/08/11 09:01:45;;;;;;;15.10;4.33;;;;;;;22.87;55.64;99092.36;2262973;78;21542;-68
2021/08/11 09:04:46;;;;;;;14.83;3.70;;;;;;;23.03;54.32;99088.84;2259939;78;21130;-68
2021/08/11 09:07:48;;;;;;;12.98;4.08;;;;;;;23.14;55.46;99080.52;2261287;78;20964;-68
2021/08/11 09:10:50;;;;;;;13.50;3.92;;;;;;;23.26;53.25;99063.60;2257161;78;20976;-62
2021/08/11 09:13:51;;;;;;;11.55;4.17;;;;;;;23.40;53.98;99075.95;2254056;78;21035;-68
2021/08/11 09:16:53;;;;;;;13.58;4.10;;;;;;;23.61;53.76;99065.52;2266388;78;20999;-68
2021/08/11 09:19:54;;;;;;;14.33;3.98;;;;;;;24.05;53.33;99057.53;2267375;78;20999;-62
2021/08/11 09:22:56;;;;;;;12.15;3.55;;;;;;;23.97;50.21;99064.27;2235478;78;21007;-68
2021/08/11 09:25:58;;;;;;;;;;;;;;;24.24;48.05;99071.48;2265505;78;20965;-67
2021/08/11 09:29:00;;;;;;;15.80;4.05;;;;;;;24.24;48.06;99070.14;2249481;78;20128;-67
2021/08/11 09:32:01;;;;;;;17.00;4.22;;;;;;;24.25;48.63;99076.70;2260330;78;21583;-68
2021/08/11 09:35:03;;;;;;;16.70;3.92;;;;;;;23.69;52.62;99076.22;2260624;78;20949;-68
2021/08/11 09:38:06;;;;;;;;;;;;;;;23.18;51.39;99090.36;2255403;78;21020;-69
2021/08/11 09:41:08;;;;;;;14.28;4.17;;;;;;;22.89;53.49;99078.81;2264512;78;20412;-69
2021/08/11 09:44:09;;;;;;;13.25;4.17;;;;;;;22.78;53.91;99082.12;2262617;78;21011;-68
2021/08/11 09:47:11;;;;;;;15.72;4.47;;;;;;;23.27;54.68;99082.64;2260881;78;21039;-67
2021/08/11 09:50:12;;;;;;;16.45;4.58;;;;;;;23.85;50.11;99078.00;2259675;78;20987;-68
2021/08/11 09:53:14;;;;;;;14.05;4.10;;;;;;;23.89;48.99;99082.52;2263279;78;21031;-68
2021/08/11 09:56:15;;;;;;;17.98;4.22;;;;;;;24.09;50.42;99076.24;2267297;78;20985;-68
2021/08/11 09:59:16;;;;;;;16.62;4.50;;;;;;;24.60;48.17;99082.53;2260873;78;21028;-69
2021/08/11 10:02:18;;;;;;;13.48;4.03;;;;;;;24.37;49.34;99092.69;2257774;78;21779;-67
2021/08/11 10:05:19;;;;;;;9.90;3.58;;;;;;;24.38;47.76;99083.64;2261667;78;20992;-62
2021/08/11 10:08:21;;;;;;;13.40;3.95;;;;;;;24.33;48.00;99095.90;2256930;78;21066;-62
2021/08/11 10:11:22;;;;;;;13.20;4.35;;;;;;;24.42;49.33;99084.11;2257607;78;20980;-67
2021/08/11 10:14:24;;;;;;;13.38;4.00;;;;;;;24.67;46.42;99095.55;2256671;78;21000;-68
2021/08/11 10:17:29;;;;;;;14.23;3.90;;;;;;;24.65;49.27;99088.20;2235405;78;21511;-69
2021/08/11 10:20:30;;;;;;;16.67;3.90;;;;;;;24.24;48.19;99083.54;2256604;78;20997;-68
2021/08/11 10:23:32;;;;;;;16.25;4.10;;;;;;;23.90;48.15;99097.59;2258090;78;20991;-68
2021/08/11 10:26:33;;;;;;;13.65;4.00;;;;;;;23.87;49.75;99096.09;2261007;78;21027;-69
2021/08/11 10:29:35;;;;;;;15.23;4.00;;;;;;;24.20;49.55;99093.27;2255459;78;21513;-68
2021/08/11 10:32:36;;;;;;;13.58;4.08;;;;;;;24.32;49.82;99091.06;2267248;78;21038;-67
2021/08/11 10:35:38;;;;;;;12.10;3.67;;;;;;;24.30;47.98;99094.92;2259809;78;21520;-68
2021/08/11 10:38:39;;;;;;;14.35;3.87;;;;;;;24.13;48.46;99082.92;2257242;78;21017;-62
2021/08/11 10:41:40;;;;;;;14.60;4.10;;;;;;;23.92;48.64;99089.38;2262284;78;20992;-69
2021/08/11 10:44:42;;;;;;;14.00;3.90;;;;;;;23.78;49.19;99089.59;2255917;78;21015;-69
2021/08/11 10:47:43;;;;;;;12.70;3.72;;;;;;;23.50;50.32;99089.97;2265870;78;20960;-68
2021/08/11 10:50:45;;;;;;;14.47;4.25;;;;;;;23.41;49.35;99091.01;2260309;78;21035;-68
2021/08/11 10:53:46;;;;;;;13.58;4.20;;;;;;;23.42;50.37;99092.17;2258070;78;21020;-69
2021/08/11 10:56:48;;;;;;;12.75;3.45;;;;;;;23.48;50.65;99090.15;2259795;78;21478;-69
2021/08/11 10:59:50;;;;;;;;;;;;;;;23.48;49.66;99090.66;2258883;78;21011;-69
2021/08/11 11:02:52;;;;;;;14.80;3.90;;;;;;;23.38;50.82;99088.16;2256300;78;20094;-69
2021/08/11 11:05:54;;;;;;;;;;;;;;;23.20;52.62;99083.50;2266742;78;20996;-69
2021/08/11 11:08:55;;;;;;;11.40;3.70;;;;;;;23.56;52.30;99088.45;2261629;78;20093;-62
2021/08/11 11:11:57;;;;;;;12.00;3.85;;;;;;;23.30;50.74;99081.48;2263224;78;20996;-68
2021/08/11 11:15:01;;;;;;;15.20;4.20;;;;;;;23.09;52.54;99093.52;2262941;78;20980;-68
2021/08/11 11:18:02;;;;;;;14.43;3.83;;;;;;;23.03;52.25;99083.50;2231432;78;20975;-69
2021/08/11 11:21:03;;;;;;;13.45;4.03;;;;;;;23.59;51.30;99084.09;2258341;78;21063;-69
2021/08/11 11:24:04;;;;;;;14.58;4.00;;;;;;;24.31;51.37;99085.84;2260621;78;21015;-68
2021/08/11 11:27:06;;;;;;;16.12;4.20;;;;;;;24.43;49.71;99091.15;2255821;78;21101;-69
2021/08/11 11:30:07;;;;;;;12.15;3.67;;;;;;;24.29;49.26;99090.05;2262580;78;21505;-68
2021/08/11 11:33:09;;;;;;;13.35;3.85;;;;;;;24.82;49.36;99089.42;2263378;78;21022;-68
2021/08/11 11:36:10;;;;;;;15.55;4.10;;;;;;;25.36;46.92;99089.83;2259458;78;20980;-63
2021/08/11 11:39:12;;;;;;;13.83;3.72;;;;;;;25.21;46.50;99105.38;2258920;78;20988;-69
2021/08/11 11:42:22;;;;;;;10.58;3.75;;;;;;;24.90;49.84;99092.87;2252129;78;21023;-68
2021/08/11 11:45:17;;;;;;;13.00;3.83;;;;;;;24.19;48.23;99086.27;2222764;78;21663;-69
2021/08/11 11:48:19;;;;;;;16.42;3.92;;;;;;;23.80;50.32;99084.37;2255757;78;21140;-68
2021/08/11 11:51:20;;;;;;;12.50;4.25;;;;;;;23.50;50.32;99079.27;2258439;78;21830;-69
2021/08/11 11:54:21;;;;;;;13.08;3.65;;;;;;;24.23;50.39;99077.36;2268660;78;20956;-68
2021/08/11 11:57:23;;;;;;;12.35;3.50;;;;;;;24.88;47.60;99072.59;2259853;78;20996;-68
2021/08/11 12:00:24;;;;;;;14.53;3.83;;;;;;;25.38;46.22;99076.53;2259333;78;21050;-69
2021/08/11 12:03:26;;;;;;;9.58;3.52;;;;;;;25.30;44.37;99073.06;2262222;78;20992;-69
2021/08/11 12:06:27;;;;;;;10.13;3.12;;;;;;;25.52;43.84;99071.37;2264791;78;21490;-69
2021/08/11 12:09:29;;;;;;;12.20;3.70;;;;;;;25.77;45.14;99079.98;2258459;78;21048;-68
2021/08/11 12:12:31;;;;;;;11.95;3.42;;;;;;;25.56;44.05;99060.59;2259551;78;21489;-68
2021/08/11 12:15:33;;;;;;;10.93;3.42;;;;;;;24.98;45.26;99071.02;2253833;78;21014;-64
2021/08/11 12:18:34;;;;;;;11.90;3.40;;;;;;;24.34;47.25;99083.66;2259887;78;21637;-69
2021/08/11 12:21:36;;;;;;;13.03;3.60;;;;;;;24.20;47.08;99079.05;2250200;78;20980;-68
2021/08/11 12:24:37;;;;;;;10.93;3.50;;;;;;;24.60;48.59;99087.89;2250705;78;21564;-69
2021/08/11 12:27:38;;;;;;;13.40;3.72;;;;;;;25.20;47.82;99074.17;2255693;78;21014;-69
2021/08/11 12:30:40;;;;;;;12.55;3.72;;;;;;;25.58;45.39;99076.00;2234409;78;20985;-69
2021/08/11 12:33:42;;;;;;;12.07;3.15;;;;;;;25.82;44.00;99065.48;2261361;78;21521;-69
2021/08/11 12:36:44;;;;;;;11.25;3.30;;;;;;;25.36;43.88;99069.19;2261186;78;21066;-69
2021/08/11 12:39:45;;;;;;;13.10;3.47;;;;;;;24.65;44.36;99078.82;2252149;78;20991;-69
2021/08/11 12:42:47;;;;;;;11.20;3.42;;;;;;;24.09;48.03;99079.44;2259453;78;21101;-63
2021/08/11 12:45:48;;;;;;;13.10;3.92;;;;;;;23.58;47.98;99080.59;2255250;78;21003;-69
2021/08/11 12:48:50;;;;;;;;;;;;;;;23.38;49.09;99074.78;2262001;78;21015;-69
2021/08/11 12:51:51;;;;;;;12.03;3.77;;;;;;;23.73;49.48;99062.48;2258579;78;20110;-69
2021/08/11 12:54:53;;;;;;;12.43;3.60;;;;;;;23.73;46.94;99054.45;2260962;78;21658;-66
2021/08/11 12:57:54;;;;;;;11.05;3.72;;;;;;;23.65;47.07;99068.70;2260050;78;20999;-69
2021/08/11 13:00:55;;;;;;;11.85;3.52;;;;;;;24.06;47.61;99068.56;2268344;78;21490;-70
2021/08/11 13:03:57;;;;;;;9.93;3.40;;;;;;;24.73;45.29;99064.52;2255688;78;20979;-70
2021/08/11 13:06:59;;;;;;;8.05;3.22;;;;;;;24.99;45.77;99075.38;2263865;78;20976;-68
2021/08/11 13:10:00;;;;;;;11.43;3.33;;;;;;;24.62;47.29;99079.67;2256767;78;20956;-69
2021/08/11 13:13:02;;;;;;;11.70;3.30;;;;;;;24.09;47.28;99077.58;2259198;78;21105;-67
2021/08/11 13:16:03;;;;;;;11.97;3.60;;;;;;;23.85;48.64;99067.29;2257861;78;20983;-69
2021/08/11 13:19:05;;;;;;;13.20;3.77;;;;;;;23.65;48.43;99078.08;2258084;78;21077;-69
2021/08/11 13:22:06;;;;;;;10.72;3.17;;;;;;;23.40;48.82;99072.76;2262286;78;21047;-69
2021/08/11 13:25:08;;;;;;;7.70;3.08;;;;;;;24.06;48.20;99070.41;2259615;78;21015;-69
2021/08/11 13:28:10;;;;;;;11.75;3.33;;;;;;;24.49;45.57;99070.33;2252032;78;21487;-68
2021/08/11 13:31:12;;;;;;;10.23;3.47;;;;;;;24.80;44.75;99070.83;2258685;78;20983;-69
2021/08/11 13:34:13;;;;;;;8.13;3.00;;;;;;;25.31;40.68;99075.59;2258461;78;21490;-69
2021/08/11 13:37:15;;;;;;;10.65;3.10;;;;;;;25.48;41.01;99056.13;2263206;78;20996;-69
2021/08/11 13:40:16;;;;;;;9.80;3.27;;;;;;;25.73;40.99;99054.50;2258925;78;21502;-63
2021/08/11 13:43:18;;;;;;;9.18;2.80;;;;;;;25.59;40.64;99072.31;2256039;78;21040;-69
2021/08/11 13:46:19;;;;;;;10.18;3.02;;;;;;;24.89;40.25;99096.55;2261145;78;20972;-67
2021/08/11 13:49:20;;;;;;;12.88;3.67;;;;;;;24.06;46.69;99073.91;2259236;78;20996;-68
2021/08/11 13:52:22;;;;;;;9.23;3.12;;;;;;;24.06;46.69;99073.91;2261539;78;20999;-69
2021/08/11 13:55:23;;;;;;;9.38;3.35;;;;;;;23.84;46.13;99091.56;2254700;78;21486;-69
2021/08/11 13:58:25;;;;;;;8.63;3.17;;;;;;;24.07;45.55;99075.59;2258080;78;20980;-69
2021/08/11 14:01:26;;;;;;;11.05;3.50;;;;;;;24.67;43.80;99073.28;2263325;78;21038;-69
2021/08/11 14:04:29;;;;;;;10.50;2.98;;;;;;;25.06;43.26;99070.43;2251166;78;21008;-69
2021/08/11 14:07:30;;;;;;;10.53;2.98;;;;;;;25.37;44.73;99061.95;2263824;78;21537;-69
2021/08/11 14:10:31;;;;;;;10.53;2.95;;;;;;;25.67;41.62;99064.66;2265464;78;21011;-69
2021/08/11 14:13:33;;;;;;;8.38;2.87;;;;;;;25.80;39.40;99061.31;2263225;78;20964;-67
2021/08/11 14:16:34;;;;;;;10.65;3.00;;;;;;;25.65;40.27;99077.45;2255660;78;21355;-69
2021/08/11 14:19:36;;;;;;;8.00;2.77;;;;;;;25.69;40.03;99068.01;2261133;78;21114;-69
2021/08/11 14:22:38;;;;;;;10.23;3.17;;;;;;;25.46;41.49;99074.78;2253768;78;21030;-69
2021/08/11 14:25:40;;;;;;;9.83;3.10;;;;;;;25.35;39.78;99072.88;2265535;78;21051;-68
2021/08/11 14:28:42;;;;;;;;;;;;;;;24.95;40.99;99084.80;2261417;78;21012;-69
2021/08/11 14:31:43;;;;;;;9.50;2.90;;;;;;;24.30;41.79;99071.63;2258168;78;20142;-64
2021/08/11 14:34:44;;;;;;;9.75;3.05;;;;;;;24.38;44.91;99068.08;2258841;78;21015;-68
2021/08/11 14:37:46;;;;;;;6.95;2.70;;;;;;;24.17;43.85;99086.10;2262046;78;20992;-68
2021/08/11 14:40:47;;;;;;;8.35;2.87;;;;;;;24.13;44.18;99070.87;2262686;78;20987;-69
2021/08/11 14:43:49;;;;;;;10.38;3.15;;;;;;;24.74;43.89;99068.87;2261941;78;20995;-69
2021/08/11 14:46:50;;;;;;;10.35;3.05;;;;;;;25.25;43.65;99065.56;2261991;78;21454;-69
2021/08/11 14:49:52;;;;;;;12.50;3.15;;;;;;;25.42;41.42;99063.06;2260859;78;21000;-69
2021/08/11 14:52:53;;;;;;;8.60;2.90;;;;;;;25.71;42.13;99057.38;2254486;78;21517;-70
2021/08/11 14:55:55;;;;;;;9.50;2.85;;;;;;;25.87;41.39;99055.00;2262461;78;21008;-69
2021/08/11 14:58:56;;;;;;;9.43;3.08;;;;;;;25.83;41.21;99064.97;2264961;78;21031;-69
2021/08/11 15:01:58;;;;;;;9.88;3.02;;;;;;;25.71;41.29;99069.47;2270023;78;20988;-67
2021/08/11 15:04:59;;;;;;;8.83;2.80;;;;;;;25.45;40.98;99073.13;2260508;78;21073;-69
2021/08/11 15:08:01;;;;;;;9.93;2.83;;;;;;;25.07;41.53;99088.20;2258970;77;21085;-69
2021/08/11 15:11:03;;;;;;;11.80;3.20;;;;;;;24.97;42.58;99076.04;2268985;78;21105;-69
2021/08/11 15:14:04;;;;;;;11.63;3.05;;;;;;;25.34;41.93;99073.06;2265939;78;20988;-70
2021/08/11 15:17:06;;;;;;;9.93;3.05;;;;;;;25.87;40.99;99069.77;2261992;78;21027;-69
2021/08/11 15:20:07;;;;;;;8.40;2.95;;;;;;;26.25;40.69;99067.50;2264773;78;21521;-69
2021/08/11 15:23:11;;;;;;;;;;;;;;;26.48;40.97;99070.02;2265942;78;21047;-68
2021/08/11 15:26:12;;;;;;;9.50;2.67;;;;;;;25.41;41.62;99082.91;2232656;78;20100;-67
2021/08/11 15:29:14;;;;;;;8.35;2.77;;;;;;;24.85;42.25;99083.69;2264942;78;21020;-69
2021/08/11 15:32:15;;;;;;;9.98;3.05;;;;;;;24.61;42.21;99080.67;2265465;78;21003;-69
2021/08/11 15:35:17;;;;;;;8.10;2.70;;;;;;;26.85;38.88;99078.05;2265889;78;21580;-69
2021/08/11 15:38:18;;;;;;;10.15;2.83;;;;;;;28.64;36.70;99072.59;2265544;78;20999;-68
2021/08/11 15:41:20;;;;;;;;;;;;;;;29.88;32.06;99079.71;2258402;78;21541;-69
2021/08/11 15:44:21;;;;;;;8.75;3.02;;;;;;;31.01;32.46;99072.06;2260254;78;20101;-69
2021/08/11 15:47:22;;;;;;;9.03;2.70;;;;;;;31.04;28.42;99088.69;2259065;78;21462;-63
2021/08/11 15:50:25;;;;;;;10.53;2.95;;;;;;;30.77;31.01;99077.73;2255984;78;21603;-69
2021/08/11 15:53:27;;;;;;;6.28;2.80;;;;;;;28.44;32.38;99086.83;2256528;78;20992;-69
2021/08/11 15:56:28;;;;;;;7.58;2.70;;;;;;;28.52;33.90;99085.30;2253729;78;21036;-69
2021/08/11 15:59:30;;;;;;;10.95;2.70;;;;;;;30.08;30.92;99080.16;2262668;78;20988;-70
2021/08/11 16:02:31;;;;;;;7.42;2.90;;;;;;;31.20;28.66;99086.48;2267671;78;21003;-70
2021/08/11 16:05:34;;;;;;;5.47;2.47;;;;;;;31.60;27.80;99078.81;2264005;78;21605;-69
2021/08/11 16:08:35;;;;;;;8.23;3.20;;;;;;;31.84;28.25;99082.20;2261299;78;20949;-70
2021/08/11 16:11:37;;;;;;;6.83;2.58;;;;;;;31.95;27.63;99082.30;2252575;78;21003;-69
2021/08/11 16:14:38;;;;;;;7.17;2.58;;;;;;;32.56;27.01;99080.17;2259327;78;20987;-70
2021/08/11 16:17:40;;;;;;;7.58;2.55;;;;;;;33.85;25.85;99092.28;2254827;78;21054;-70
2021/08/11 16:20:42;;;;;;;4.12;2.30;;;;;;;34.74;25.14;99092.38;2267184;78;21031;-70
2021/08/11 16:23:43;;;;;;;7.22;2.65;;;;;;;34.25;23.82;99095.54;2254605;78;21095;-65
2021/08/11 16:26:45;;;;;;;5.75;2.50;;;;;;;34.68;23.99;99094.70;2257358;78;21525;-70
2021/08/11 16:29:47;;;;;;;9.28;2.58;;;;;;;34.14;25.18;99098.58;2254326;78;21011;-69
2021/08/11 16:32:48;;;;;;;6.75;2.70;;;;;;;31.39;27.50;99097.67;2250826;78;21479;-67
2021/08/11 16:35:53;;;;;;;6.65;2.83;;;;;;;30.20;29.91;99096.05;2258927;78;21028;-70
2021/08/11 16:38:54;;;;;;;9.50;2.37;;;;;;;29.81;30.07;99099.99;2259505;78;21003;-70
2021/08/11 16:41:55;;;;;;;6.45;2.62;;;;;;;31.13;28.78;99103.31;2263208;78;20953;-71
2021/08/11 16:44:57;;;;;;;6.40;2.70;;;;;;;29.48;30.04;99111.70;2261132;78;21565;-69
2021/08/11 16:47:58;;;;;;;7.78;2.70;;;;;;;29.96;30.84;99109.22;2265518;78;20960;-70
2021/08/11 16:51:00;;;;;;;8.03;2.80;;;;;;;31.80;28.64;99104.89;2255496;78;21022;-70
2021/08/11 16:54:01;;;;;;;7.72;2.50;;;;;;;32.92;27.32;99105.02;2264149;78;21000;-69
2021/08/11 16:57:03;;;;;;;6.87;2.87;;;;;;;33.60;25.76;99106.11;2262558;78;21036;-70
2021/08/11 17:00:04;;;;;;;7.92;2.60;;;;;;;33.47;25.12;99112.06;2260049;78;21043;-70
2021/08/11 17:03:06;;;;;;;5.37;2.67;;;;;;;33.47;26.16;99113.42;2259720;78;20992;-72
2021/08/11 17:06:08;;;;;;;5.72;2.77;;;;;;;33.41;26.56;99109.48;2258818;78;21506;-72
2021/08/11 17:09:09;;;;;;;7.97;2.75;;;;;;;33.31;26.29;99121.75;2259650;78;21012;-71
2021/08/11 17:12:10;;;;;;;7.90;2.80;;;;;;;33.36;25.52;99116.15;2251141;78;20995;-72
2021/08/11 17:15:12;;;;;;;9.05;2.85;;;;;;;33.45;25.80;99118.28;2265514;78;20996;-71
2021/08/11 17:18:14;;;;;;;5.30;2.52;;;;;;;33.28;26.22;99115.98;2262999;78;20976;-71
2021/08/11 17:21:15;;;;;;;13.65;3.25;;;;;;;33.60;26.41;99123.23;2257159;78;21016;-71
2021/08/11 17:24:17;;;;;;;8.68;2.70;;;;;;;33.61;25.44;99122.72;2257345;78;21058;-71
2021/08/11 17:27:18;;;;;;;8.48;2.70;;;;;;;33.34;26.18;99121.83;2258705;78;21537;-71
2021/08/11 17:30:19;;;;;;;9.78;3.20;;;;;;;33.06;26.40;99123.31;2251499;78;21012;-72
2021/08/11 17:33:21;;;;;;;8.88;3.12;;;;;;;32.90;26.27;99125.33;2258687;78;21490;-72
2021/08/11 17:36:22;;;;;;;10.28;3.12;;;;;;;32.46;26.94;99124.97;2252618;78;20984;-69
2021/08/11 17:39:25;;;;;;;8.53;3.00;;;;;;;32.10;27.35;99128.55;2259847;78;20988;-72
2021/08/11 17:42:26;;;;;;;9.40;3.30;;;;;;;31.75;27.92;99133.19;2253624;78;21034;-72
2021/08/11 17:45:28;;;;;;;7.80;3.00;;;;;;;31.45;28.13;99139.31;2264082;78;21517;-71
2021/08/11 17:48:30;;;;;;;9.40;2.90;;;;;;;30.95;29.00;99138.73;2264996;78;21051;-62
2021/08/11 17:51:31;;;;;;;11.22;2.90;;;;;;;30.51;29.48;99141.27;2257983;78;21603;-69
2021/08/11 17:54:33;;;;;;;10.13;2.90;;;;;;;29.91;30.19;99154.98;2252975;78;20964;-68
2021/08/11 17:57:34;;;;;;;8.50;2.92;;;;;;;29.10;31.34;99147.92;2266740;78;20996;-68
2021/08/11 18:00:36;;;;;;;13.10;2.98;;;;;;;28.33;31.86;99154.34;2253124;78;21024;-65
2021/08/11 18:03:37;;;;;;;7.97;2.92;;;;;;;27.38;33.02;99161.98;2261141;78;21039;-63
2021/08/11 18:06:39;;;;;;;14.75;3.65;;;;;;;26.23;34.70;99172.53;2253973;78;21042;-62
2021/08/11 18:09:41;;;;;;;;;;;;;;;25.16;36.37;99171.34;2255398;78;21094;-62
2021/08/11 18:12:42;;;;;;;14.35;3.30;;;;;;;24.34;37.33;99174.79;2258551;78;20188;-63
2021/08/11 18:15:44;;;;;;;13.65;3.22;;;;;;;23.63;38.36;99183.15;2269758;78;21073;-62
2021/08/11 18:18:46;;;;;;;10.35;3.12;;;;;;;23.03;39.43;99185.61;2265001;78;21011;-62
2021/08/11 18:21:48;;;;;;;9.33;3.20;;;;;;;22.43;40.31;99192.32;2265227;78;20976;-64
2021/08/11 18:24:51;;;;;;;9.45;3.25;;;;;;;22.00;40.97;99203.44;2259127;78;20953;-63
2021/08/11 18:27:54;;;;;;;13.65;3.40;;;;;;;21.67;41.83;99207.73;2262659;78;20995;-63
2021/08/11 18:30:55;;;;;;;;;;;;;;;21.42;42.62;99207.00;2260055;78;21063;-63
2021/08/11 18:33:57;;;;;;;12.88;3.47;;;;;;;21.06;43.36;99204.83;2259143;78;20102;-73
2021/08/11 18:36:59;;;;;;;10.70;3.20;;;;;;;20.80;43.28;99210.06;2261445;78;21566;-69
2021/08/11 18:40:00;;;;;;;;;;;;;;;20.60;44.35;99216.33;2268252;78;20980;-63
2021/08/11 18:43:01;;;;;;;11.03;3.63;;;;;;;20.35;45.72;99223.16;2257300;78;20431;-73
2021/08/11 18:46:03;;;;;;;13.85;3.50;;;;;;;20.01;46.47;99227.71;2260613;78;20987;-73
2021/08/11 18:49:04;;;;;;;12.28;3.83;;;;;;;19.69;46.53;99236.00;2260297;78;21560;-63
2021/08/11 18:52:06;;;;;;;18.92;5.80;;;;;;;19.34;47.72;99235.59;2261416;78;21034;-63
2021/08/11 18:55:08;;;;;;;88.30;56.75;;;;;;;19.23;48.00;99236.23;2260418;78;21513;-62
2021/08/11 18:58:09;;;;;;;31.73;16.70;;;;;;;19.17;48.74;99234.46;2259777;78;20960;-62
2021/08/11 19:01:11;;;;;;;19.40;4.67;;;;;;;19.10;49.55;99245.80;2256828;78;21011;-62
2021/08/11 19:04:12;;;;;;;20.92;5.85;;;;;;;19.07;50.28;99244.25;2246779;78;20991;-63
2021/08/11 19:07:14;;;;;;;89.42;59.48;;;;;;;19.02;50.72;99247.80;2252664;78;20969;-63
2021/08/11 19:10:15;;;;;;;34.85;17.20;;;;;;;18.90;51.33;99251.57;2262634;78;21597;-62
2021/08/11 19:13:17;;;;;;;27.15;12.68;;;;;;;18.70;51.73;99259.45;2264177;78;21015;-62
2021/08/11 19:16:18;;;;;;;20.05;5.78;;;;;;;18.56;51.73;99269.11;2262743;78;20983;-72
2021/08/11 19:19:19;;;;;;;16.90;4.65;;;;;;;18.40;52.19;99278.41;2254093;78;21055;-63
2021/08/11 19:22:21;;;;;;;23.95;8.50;;;;;;;18.35;52.25;99277.98;2258739;78;20987;-62
2021/08/11 19:25:22;;;;;;;33.98;11.12;;;;;;;18.27;52.74;99274.64;2258694;78;21086;-62
2021/08/11 19:28:24;;;;;;;49.63;23.15;;;;;;;18.17;53.29;99275.08;2264155;78;20994;-62
2021/08/11 19:31:26;;;;;;;28.95;10.88;;;;;;;18.12;54.06;99266.19;2266927;78;21515;-62
2021/08/11 19:34:29;;;;;;;26.97;8.63;;;;;;;18.05;54.03;99269.02;2255005;78;21004;-62
2021/08/11 19:37:31;;;;;;;24.25;7.75;;;;;;;17.93;54.47;99277.53;2261199;78;21020;-73
2021/08/11 19:40:32;;;;;;;27.35;10.00;;;;;;;17.85;54.43;99272.00;2259230;78;21000;-73
2021/08/11 19:43:34;;;;;;;33.73;12.93;;;;;;;17.72;54.95;99277.48;2257869;78;21505;-73
2021/08/11 19:46:36;;;;;;;34.18;12.13;;;;;;;17.60;55.33;99275.88;2261427;78;21043;-62